Dunnegan, Missouri
Current Conditions -  °F | °C
As of 5:52 AM on Thursday 27 Nov 2014 (Local Time) from KSGF Reporting Station
Overcast Overcast  
Wind Chill: 22°   Ceiling: 1600
Heat Index: 30°   Visibility: 8mi
Dew Point: 23°   Wind: 9mph
Humidity: 75%   Direction: 340°NNW
Pressure: 30.44"   Gusts: NA
Location:  37.71°N, 93.58°W
Report Text: KSGF 271152Z 34008KT 8SM OVC016 M01/M05 A3044 RMK AO2 SLP316 70001 T10111050 10000 21017 52012
Loading
Personal Weather Stations






























Interactive Weather Map New forecast layout! Learn more

10-Day Weather Forecast

Advertisements
Track Severe Weather on mobile